sensor_id;sensor_type;location;lat;lon;timestamp;temperature;humidity
40255;DHT22;25973;52.368;4.940;2023-06-22T00:00:51;21.00;99.90
40255;DHT22;25973;52.368;4.940;2023-06-22T00:03:18;21.00;99.90
40255;DHT22;25973;52.368;4.940;2023-06-22T00:05:45;21.00;99.90
40255;DHT22;25973;52.368;4.940;2023-06-22T00:08:11;21.00;99.90
40255;DHT22;25973;52.368;4.940;2023-06-22T00:10:37;21.00;99.90
40255;DHT22;25973;52.368;4.940;2023-06-22T00:13:02;21.00;99.90
40255;DHT22;25973;52.368;4.940;2023-06-22T00:15:28;21.00;99.90
40255;DHT22;25973;52.368;4.940;2023-06-22T00:17:54;21.00;99.90
40255;DHT22;25973;52.368;4.940;2023-06-22T00:20:19;21.00;99.90
40255;DHT22;25973;52.368;4.940;2023-06-22T00:22:45;21.00;99.90
40255;DHT22;25973;52.368;4.940;2023-06-22T00:25:11;21.00;99.90
40255;DHT22;25973;52.368;4.940;2023-06-22T00:27:37;20.90;99.90
40255;DHT22;25973;52.368;4.940;2023-06-22T00:30:03;20.90;99.90
40255;DHT22;25973;52.368;4.940;2023-06-22T00:32:29;20.90;99.90
40255;DHT22;25973;52.368;4.940;2023-06-22T00:34:54;20.90;99.90
40255;DHT22;25973;52.368;4.940;2023-06-22T00:37:20;20.90;99.90
40255;DHT22;25973;52.368;4.940;2023-06-22T00:39:51;20.90;99.90
40255;DHT22;25973;52.368;4.940;2023-06-22T00:42:16;20.80;99.90
40255;DHT22;25973;52.368;4.940;2023-06-22T00:44:42;20.80;99.90
40255;DHT22;25973;52.368;4.940;2023-06-22T00:47:08;20.80;99.90
40255;DHT22;25973;52.368;4.940;2023-06-22T00:49:33;20.80;99.90
40255;DHT22;25973;52.368;4.940;2023-06-22T00:51:59;20.80;99.90
40255;DHT22;25973;52.368;4.940;2023-06-22T00:54:24;20.80;99.90
40255;DHT22;25973;52.368;4.940;2023-06-22T00:56:54;20.80;99.90
40255;DHT22;25973;52.368;4.940;2023-06-22T00:59:21;20.80;99.90
40255;DHT22;25973;52.368;4.940;2023-06-22T01:01:48;20.80;99.90
40255;DHT22;25973;52.368;4.940;2023-06-22T01:04:14;20.80;99.90
40255;DHT22;25973;52.368;4.940;2023-06-22T01:06:50;20.80;99.90
40255;DHT22;25973;52.368;4.940;2023-06-22T01:09:24;20.80;99.90
40255;DHT22;25973;52.368;4.940;2023-06-22T01:12:04;20.80;99.90
40255;DHT22;25973;52.368;4.940;2023-06-22T01:14:43;20.70;99.90
40255;DHT22;25973;52.368;4.940;2023-06-22T01:17:12;20.70;99.90
40255;DHT22;25973;52.368;4.940;2023-06-22T01:22:07;20.70;99.90
40255;DHT22;25973;52.368;4.940;2023-06-22T01:25:12;20.70;99.90
40255;DHT22;25973;52.368;4.940;2023-06-22T01:28:03;20.70;99.90
40255;DHT22;25973;52.368;4.940;2023-06-22T01:30:30;20.70;99.90
40255;DHT22;25973;52.368;4.940;2023-06-22T01:33:00;20.60;99.90
40255;DHT22;25973;52.368;4.940;2023-06-22T01:35:26;20.60;99.90
40255;DHT22;25973;52.368;4.940;2023-06-22T01:37:52;20.60;99.90
40255;DHT22;25973;52.368;4.940;2023-06-22T01:40:19;20.50;99.90
40255;DHT22;25973;52.368;4.940;2023-06-22T01:42:45;20.50;99.90
40255;DHT22;25973;52.368;4.940;2023-06-22T01:45:12;20.50;99.90
40255;DHT22;25973;52.368;4.940;2023-06-22T01:47:39;20.50;99.90
40255;DHT22;25973;52.368;4.940;2023-06-22T01:50:05;20.50;99.90
40255;DHT22;25973;52.368;4.940;2023-06-22T01:52:31;20.50;99.90
40255;DHT22;25973;52.368;4.940;2023-06-22T01:54:59;20.50;99.90
40255;DHT22;25973;52.368;4.940;2023-06-22T01:57:26;20.50;99.90
40255;DHT22;25973;52.368;4.940;2023-06-22T02:02:33;20.50;99.90
40255;DHT22;25973;52.368;4.940;2023-06-22T02:05:06;20.50;99.90
40255;DHT22;25973;52.368;4.940;2023-06-22T02:07:36;20.50;99.90
40255;DHT22;25973;52.368;4.940;2023-06-22T02:10:06;20.50;99.90
40255;DHT22;25973;52.368;4.940;2023-06-22T02:12:33;20.50;99.90
40255;DHT22;25973;52.368;4.940;2023-06-22T02:15:01;20.40;99.90
40255;DHT22;25973;52.368;4.940;2023-06-22T02:17:26;20.40;99.90
40255;DHT22;25973;52.368;4.940;2023-06-22T02:19:52;20.40;99.90
40255;DHT22;25973;52.368;4.940;2023-06-22T02:22:18;20.40;99.90
40255;DHT22;25973;52.368;4.940;2023-06-22T02:24:43;20.40;99.90
40255;DHT22;25973;52.368;4.940;2023-06-22T02:27:09;20.40;99.90
40255;DHT22;25973;52.368;4.940;2023-06-22T02:29:36;20.40;99.90
40255;DHT22;25973;52.368;4.940;2023-06-22T02:32:02;20.40;99.90
40255;DHT22;25973;52.368;4.940;2023-06-22T02:34:27;20.50;99.90
40255;DHT22;25973;52.368;4.940;2023-06-22T02:36:53;20.50;99.90
40255;DHT22;25973;52.368;4.940;2023-06-22T02:39:23;20.50;99.90
40255;DHT22;25973;52.368;4.940;2023-06-22T02:41:53;20.40;99.90
40255;DHT22;25973;52.368;4.940;2023-06-22T02:44:20;20.40;99.90
40255;DHT22;25973;52.368;4.940;2023-06-22T02:46:46;20.40;99.90
40255;DHT22;25973;52.368;4.940;2023-06-22T02:49:12;20.40;99.90
40255;DHT22;25973;52.368;4.940;2023-06-22T02:51:45;20.40;99.90
40255;DHT22;25973;52.368;4.940;2023-06-22T02:54:10;20.40;99.90
40255;DHT22;25973;52.368;4.940;2023-06-22T02:56:36;20.40;99.90
40255;DHT22;25973;52.368;4.940;2023-06-22T02:59:02;20.40;99.90
40255;DHT22;25973;52.368;4.940;2023-06-22T03:01:29;20.40;99.90
40255;DHT22;25973;52.368;4.940;2023-06-22T03:03:58;20.40;99.90
40255;DHT22;25973;52.368;4.940;2023-06-22T03:06:24;20.40;99.90
40255;DHT22;25973;52.368;4.940;2023-06-22T03:09:01;20.40;99.90
40255;DHT22;25973;52.368;4.940;2023-06-22T03:11:29;20.30;99.90
40255;DHT22;25973;52.368;4.940;2023-06-22T03:13:55;20.30;99.90
40255;DHT22;25973;52.368;4.940;2023-06-22T03:16:20;20.20;99.90
40255;DHT22;25973;52.368;4.940;2023-06-22T03:18:46;20.20;99.90
40255;DHT22;25973;52.368;4.940;2023-06-22T03:21:12;20.20;99.90
40255;DHT22;25973;52.368;4.940;2023-06-22T03:23:37;20.20;99.90
40255;DHT22;25973;52.368;4.940;2023-06-22T03:26:03;20.20;99.90
40255;DHT22;25973;52.368;4.940;2023-06-22T03:28:29;20.20;99.90
40255;DHT22;25973;52.368;4.940;2023-06-22T03:30:57;20.20;99.90
40255;DHT22;25973;52.368;4.940;2023-06-22T03:33:23;20.20;99.90
40255;DHT22;25973;52.368;4.940;2023-06-22T03:35:48;20.30;99.90
40255;DHT22;25973;52.368;4.940;2023-06-22T03:38:16;20.20;99.90
40255;DHT22;25973;52.368;4.940;2023-06-22T03:40:41;20.30;99.90
40255;DHT22;25973;52.368;4.940;2023-06-22T03:43:07;20.30;99.90
40255;DHT22;25973;52.368;4.940;2023-06-22T03:45:32;20.30;99.90
40255;DHT22;25973;52.368;4.940;2023-06-22T03:47:58;20.30;99.90
40255;DHT22;25973;52.368;4.940;2023-06-22T03:50:24;20.30;99.90
40255;DHT22;25973;52.368;4.940;2023-06-22T03:52:52;20.30;99.90
40255;DHT22;25973;52.368;4.940;2023-06-22T03:55:19;20.30;99.90
40255;DHT22;25973;52.368;4.940;2023-06-22T03:57:45;20.30;99.90
40255;DHT22;25973;52.368;4.940;2023-06-22T04:00:11;20.20;99.90
40255;DHT22;25973;52.368;4.940;2023-06-22T04:02:37;20.20;99.90
40255;DHT22;25973;52.368;4.940;2023-06-22T04:05:02;20.20;99.90
40255;DHT22;25973;52.368;4.940;2023-06-22T04:07:28;20.20;99.90
40255;DHT22;25973;52.368;4.940;2023-06-22T04:09:53;20.20;99.90
40255;DHT22;25973;52.368;4.940;2023-06-22T04:12:19;20.20;99.90
40255;DHT22;25973;52.368;4.940;2023-06-22T04:14:45;20.20;99.90
40255;DHT22;25973;52.368;4.940;2023-06-22T04:17:10;20.20;99.90
40255;DHT22;25973;52.368;4.940;2023-06-22T04:19:40;20.20;99.90
40255;DHT22;25973;52.368;4.940;2023-06-22T04:22:06;20.20;99.90
40255;DHT22;25973;52.368;4.940;2023-06-22T04:24:33;20.20;99.90
40255;DHT22;25973;52.368;4.940;2023-06-22T04:26:59;20.20;99.90
40255;DHT22;25973;52.368;4.940;2023-06-22T04:29:28;20.30;99.90
40255;DHT22;25973;52.368;4.940;2023-06-22T04:31:56;20.30;99.90
40255;DHT22;25973;52.368;4.940;2023-06-22T04:34:23;20.40;99.90
40255;DHT22;25973;52.368;4.940;2023-06-22T04:36:51;20.40;99.90
40255;DHT22;25973;52.368;4.940;2023-06-22T04:39:17;20.40;99.90
40255;DHT22;25973;52.368;4.940;2023-06-22T04:41:44;20.40;99.90
40255;DHT22;25973;52.368;4.940;2023-06-22T04:44:15;20.40;99.90
40255;DHT22;25973;52.368;4.940;2023-06-22T04:47:02;20.50;99.90
40255;DHT22;25973;52.368;4.940;2023-06-22T04:49:34;20.60;99.90
40255;DHT22;25973;52.368;4.940;2023-06-22T04:52:04;20.70;99.90
40255;DHT22;25973;52.368;4.940;2023-06-22T04:54:30;20.80;99.90
40255;DHT22;25973;52.368;4.940;2023-06-22T04:57:01;20.80;99.90
40255;DHT22;25973;52.368;4.940;2023-06-22T04:59:29;20.90;99.90
40255;DHT22;25973;52.368;4.940;2023-06-22T05:02:02;20.90;99.90
40255;DHT22;25973;52.368;4.940;2023-06-22T05:04:29;21.00;99.90
40255;DHT22;25973;52.368;4.940;2023-06-22T05:06:59;21.20;99.90
40255;DHT22;25973;52.368;4.940;2023-06-22T05:09:25;21.30;99.90
40255;DHT22;25973;52.368;4.940;2023-06-22T05:11:51;21.40;99.90
40255;DHT22;25973;52.368;4.940;2023-06-22T05:14:17;21.50;99.90
40255;DHT22;25973;52.368;4.940;2023-06-22T05:16:43;21.60;99.90
40255;DHT22;25973;52.368;4.940;2023-06-22T05:19:09;21.70;99.90
40255;DHT22;25973;52.368;4.940;2023-06-22T05:21:35;21.70;99.90
40255;DHT22;25973;52.368;4.940;2023-06-22T05:24:01;21.80;99.90
40255;DHT22;25973;52.368;4.940;2023-06-22T05:26:32;21.90;99.90
40255;DHT22;25973;52.368;4.940;2023-06-22T05:28:59;21.90;99.90
40255;DHT22;25973;52.368;4.940;2023-06-22T05:31:25;21.70;99.90
40255;DHT22;25973;52.368;4.940;2023-06-22T05:33:52;21.60;99.90
40255;DHT22;25973;52.368;4.940;2023-06-22T05:36:18;21.70;99.90
40255;DHT22;25973;52.368;4.940;2023-06-22T05:38:45;21.70;99.90
40255;DHT22;25973;52.368;4.940;2023-06-22T05:41:11;21.80;99.90
40255;DHT22;25973;52.368;4.940;2023-06-22T05:43:37;21.90;99.90
40255;DHT22;25973;52.368;4.940;2023-06-22T05:46:04;21.90;99.90
40255;DHT22;25973;52.368;4.940;2023-06-22T05:48:30;22.10;99.90
40255;DHT22;25973;52.368;4.940;2023-06-22T05:50:55;22.10;99.90
40255;DHT22;25973;52.368;4.940;2023-06-22T05:53:21;22.20;99.90
40255;DHT22;25973;52.368;4.940;2023-06-22T05:55:47;22.10;99.90
40255;DHT22;25973;52.368;4.940;2023-06-22T05:58:12;22.20;99.90
40255;DHT22;25973;52.368;4.940;2023-06-22T06:00:42;22.20;99.90
40255;DHT22;25973;52.368;4.940;2023-06-22T06:03:09;22.10;99.90
40255;DHT22;25973;52.368;4.940;2023-06-22T06:05:35;22.10;99.90
40255;DHT22;25973;52.368;4.940;2023-06-22T06:08:02;22.00;99.90
40255;DHT22;25973;52.368;4.940;2023-06-22T06:10:28;22.00;99.90
40255;DHT22;25973;52.368;4.940;2023-06-22T06:12:55;21.90;99.90
40255;DHT22;25973;52.368;4.940;2023-06-22T06:15:21;22.00;99.90
40255;DHT22;25973;52.368;4.940;2023-06-22T06:17:48;22.10;99.90
40255;DHT22;25973;52.368;4.940;2023-06-22T06:20:15;22.30;99.90
40255;DHT22;25973;52.368;4.940;2023-06-22T06:22:41;22.30;99.90
40255;DHT22;25973;52.368;4.940;2023-06-22T06:25:08;22.50;99.90
40255;DHT22;25973;52.368;4.940;2023-06-22T06:27:34;22.70;99.90
40255;DHT22;25973;52.368;4.940;2023-06-22T06:29:59;22.80;99.90
40255;DHT22;25973;52.368;4.940;2023-06-22T06:32:25;23.10;99.90
40255;DHT22;25973;52.368;4.940;2023-06-22T06:34:50;23.50;99.90
40255;DHT22;25973;52.368;4.940;2023-06-22T06:37:17;24.10;99.90
40255;DHT22;25973;52.368;4.940;2023-06-22T06:39:44;24.90;99.90
40255;DHT22;25973;52.368;4.940;2023-06-22T06:42:09;25.50;99.90
40255;DHT22;25973;52.368;4.940;2023-06-22T06:44:36;26.00;99.90
40255;DHT22;25973;52.368;4.940;2023-06-22T06:47:03;26.30;99.90
40255;DHT22;25973;52.368;4.940;2023-06-22T06:49:29;26.50;99.90
40255;DHT22;25973;52.368;4.940;2023-06-22T06:51:55;26.80;99.90
40255;DHT22;25973;52.368;4.940;2023-06-22T06:54:21;26.70;99.90
40255;DHT22;25973;52.368;4.940;2023-06-22T06:56:47;26.90;99.90
40255;DHT22;25973;52.368;4.940;2023-06-22T06:59:14;26.80;99.90
40255;DHT22;25973;52.368;4.940;2023-06-22T07:01:41;27.30;99.90
40255;DHT22;25973;52.368;4.940;2023-06-22T07:04:06;27.70;99.90
40255;DHT22;25973;52.368;4.940;2023-06-22T07:06:32;28.20;99.90
40255;DHT22;25973;52.368;4.940;2023-06-22T07:08:59;28.60;99.90
40255;DHT22;25973;52.368;4.940;2023-06-22T07:11:25;28.90;99.90
40255;DHT22;25973;52.368;4.940;2023-06-22T07:13:51;29.50;99.90
40255;DHT22;25973;52.368;4.940;2023-06-22T07:16:16;30.10;99.90
40255;DHT22;25973;52.368;4.940;2023-06-22T07:18:42;30.80;99.90
40255;DHT22;25973;52.368;4.940;2023-06-22T07:21:07;31.70;99.90
40255;DHT22;25973;52.368;4.940;2023-06-22T07:23:33;32.30;99.90
40255;DHT22;25973;52.368;4.940;2023-06-22T07:25:59;32.40;99.90
40255;DHT22;25973;52.368;4.940;2023-06-22T07:28:27;33.10;99.80
40255;DHT22;25973;52.368;4.940;2023-06-22T07:30:53;33.50;99.10
40255;DHT22;25973;52.368;4.940;2023-06-22T07:33:18;34.10;98.80
40255;DHT22;25973;52.368;4.940;2023-06-22T07:35:45;34.60;97.20
40255;DHT22;25973;52.368;4.940;2023-06-22T07:38:12;34.70;97.20
40255;DHT22;25973;52.368;4.940;2023-06-22T07:40:38;34.50;96.10
40255;DHT22;25973;52.368;4.940;2023-06-22T07:43:03;34.20;96.40
40255;DHT22;25973;52.368;4.940;2023-06-22T07:45:29;33.70;97.20
40255;DHT22;25973;52.368;4.940;2023-06-22T07:47:55;33.80;97.00
40255;DHT22;25973;52.368;4.940;2023-06-22T07:50:20;33.00;97.90
40255;DHT22;25973;52.368;4.940;2023-06-22T07:52:46;32.50;98.50
40255;DHT22;25973;52.368;4.940;2023-06-22T07:55:13;32.00;99.50
40255;DHT22;25973;52.368;4.940;2023-06-22T07:57:39;32.10;99.90
40255;DHT22;25973;52.368;4.940;2023-06-22T08:00:05;32.30;99.90
40255;DHT22;25973;52.368;4.940;2023-06-22T08:02:42;33.10;98.90
40255;DHT22;25973;52.368;4.940;2023-06-22T08:05:09;33.30;97.60
40255;DHT22;25973;52.368;4.940;2023-06-22T08:07:38;33.20;98.30
40255;DHT22;25973;52.368;4.940;2023-06-22T08:10:10;34.00;98.10
40255;DHT22;25973;52.368;4.940;2023-06-22T08:12:36;34.90;96.80
40255;DHT22;25973;52.368;4.940;2023-06-22T08:15:02;35.00;96.40
40255;DHT22;25973;52.368;4.940;2023-06-22T08:17:28;35.60;95.30
40255;DHT22;25973;52.368;4.940;2023-06-22T08:19:53;35.30;94.60
40255;DHT22;25973;52.368;4.940;2023-06-22T08:22:19;35.70;94.50
40255;DHT22;25973;52.368;4.940;2023-06-22T08:24:44;35.90;94.40
40255;DHT22;25973;52.368;4.940;2023-06-22T08:27:10;35.80;94.20
40255;DHT22;25973;52.368;4.940;2023-06-22T08:29:40;34.90;94.00
40255;DHT22;25973;52.368;4.940;2023-06-22T08:32:09;34.30;95.30
40255;DHT22;25973;52.368;4.940;2023-06-22T08:34:35;33.80;95.20
40255;DHT22;25973;52.368;4.940;2023-06-22T08:37:01;33.80;96.00
40255;DHT22;25973;52.368;4.940;2023-06-22T08:39:26;34.00;96.00
40255;DHT22;25973;52.368;4.940;2023-06-22T08:41:53;33.90;95.50
40255;DHT22;25973;52.368;4.940;2023-06-22T08:44:19;34.10;95.30
40255;DHT22;25973;52.368;4.940;2023-06-22T08:46:45;34.10;95.50
40255;DHT22;25973;52.368;4.940;2023-06-22T08:49:10;33.60;95.30
40255;DHT22;25973;52.368;4.940;2023-06-22T08:51:36;33.70;96.10
40255;DHT22;25973;52.368;4.940;2023-06-22T08:54:01;33.80;96.10
40255;DHT22;25973;52.368;4.940;2023-06-22T08:56:27;34.10;95.80
40255;DHT22;25973;52.368;4.940;2023-06-22T08:58:53;33.20;96.40
40255;DHT22;25973;52.368;4.940;2023-06-22T09:01:18;33.00;97.00
40255;DHT22;25973;52.368;4.940;2023-06-22T09:03:44;32.70;97.50
40255;DHT22;25973;52.368;4.940;2023-06-22T09:06:19;32.70;97.60
40255;DHT22;25973;52.368;4.940;2023-06-22T09:08:45;32.10;98.00
40255;DHT22;25973;52.368;4.940;2023-06-22T09:11:11;32.00;99.10
40255;DHT22;25973;52.368;4.940;2023-06-22T09:13:37;31.80;99.40
40255;DHT22;25973;52.368;4.940;2023-06-22T09:16:02;31.50;99.30
40255;DHT22;25973;52.368;4.940;2023-06-22T09:18:28;31.50;99.90
40255;DHT22;25973;52.368;4.940;2023-06-22T09:20:53;31.30;99.90
40255;DHT22;25973;52.368;4.940;2023-06-22T09:23:19;31.30;99.90
40255;DHT22;25973;52.368;4.940;2023-06-22T09:25:45;31.10;99.90
40255;DHT22;25973;52.368;4.940;2023-06-22T09:28:12;30.70;99.90
40255;DHT22;25973;52.368;4.940;2023-06-22T09:30:38;30.70;99.90
40255;DHT22;25973;52.368;4.940;2023-06-22T09:33:03;30.50;99.90
40255;DHT22;25973;52.368;4.940;2023-06-22T09:35:29;30.50;99.90
40255;DHT22;25973;52.368;4.940;2023-06-22T09:37:54;30.40;99.90
40255;DHT22;25973;52.368;4.940;2023-06-22T09:40:20;30.40;99.90
40255;DHT22;25973;52.368;4.940;2023-06-22T09:42:45;30.40;99.90
40255;DHT22;25973;52.368;4.940;2023-06-22T09:45:11;30.40;99.90
40255;DHT22;25973;52.368;4.940;2023-06-22T09:47:37;30.30;99.90
40255;DHT22;25973;52.368;4.940;2023-06-22T09:50:03;30.20;99.90
40255;DHT22;25973;52.368;4.940;2023-06-22T09:52:28;29.90;99.90
40255;DHT22;25973;52.368;4.940;2023-06-22T09:54:54;29.60;99.90
40255;DHT22;25973;52.368;4.940;2023-06-22T09:57:20;29.60;99.90
40255;DHT22;25973;52.368;4.940;2023-06-22T09:59:45;29.30;99.90
40255;DHT22;25973;52.368;4.940;2023-06-22T10:02:11;29.30;99.90
40255;DHT22;25973;52.368;4.940;2023-06-22T10:04:36;29.10;99.90
40255;DHT22;25973;52.368;4.940;2023-06-22T10:07:02;28.90;99.90
40255;DHT22;25973;52.368;4.940;2023-06-22T10:09:28;29.00;99.90
40255;DHT22;25973;52.368;4.940;2023-06-22T10:11:54;28.90;99.90
40255;DHT22;25973;52.368;4.940;2023-06-22T10:14:19;28.70;99.90
40255;DHT22;25973;52.368;4.940;2023-06-22T10:16:45;28.70;99.90
40255;DHT22;25973;52.368;4.940;2023-06-22T10:19:11;28.40;99.90
40255;DHT22;25973;52.368;4.940;2023-06-22T10:21:36;28.40;99.90
40255;DHT22;25973;52.368;4.940;2023-06-22T10:24:02;28.10;99.90
40255;DHT22;25973;52.368;4.940;2023-06-22T10:26:32;27.90;99.90
40255;DHT22;25973;52.368;4.940;2023-06-22T10:28:58;27.60;99.90
40255;DHT22;25973;52.368;4.940;2023-06-22T10:31:24;27.30;99.90
40255;DHT22;25973;52.368;4.940;2023-06-22T10:33:50;27.20;99.90
40255;DHT22;25973;52.368;4.940;2023-06-22T10:36:15;26.90;99.90
40255;DHT22;25973;52.368;4.940;2023-06-22T10:38:41;26.70;99.90
40255;DHT22;25973;52.368;4.940;2023-06-22T10:41:07;26.70;99.90
40255;DHT22;25973;52.368;4.940;2023-06-22T10:43:32;26.70;99.90
40255;DHT22;25973;52.368;4.940;2023-06-22T10:45:58;26.60;99.90
40255;DHT22;25973;52.368;4.940;2023-06-22T10:48:23;26.50;99.90
40255;DHT22;25973;52.368;4.940;2023-06-22T10:50:52;26.30;99.90
40255;DHT22;25973;52.368;4.940;2023-06-22T10:53:18;26.20;99.90
40255;DHT22;25973;52.368;4.940;2023-06-22T10:55:44;26.00;99.90
40255;DHT22;25973;52.368;4.940;2023-06-22T10:58:09;25.90;99.90
40255;DHT22;25973;52.368;4.940;2023-06-22T11:00:35;25.90;99.90
40255;DHT22;25973;52.368;4.940;2023-06-22T11:03:01;25.90;99.90
40255;DHT22;25973;52.368;4.940;2023-06-22T11:05:26;25.80;99.90
40255;DHT22;25973;52.368;4.940;2023-06-22T11:07:52;25.70;99.90
40255;DHT22;25973;52.368;4.940;2023-06-22T11:10:17;25.80;99.90
40255;DHT22;25973;52.368;4.940;2023-06-22T11:12:43;25.70;99.90
40255;DHT22;25973;52.368;4.940;2023-06-22T11:15:09;25.70;99.90
40255;DHT22;25973;52.368;4.940;2023-06-22T11:17:35;25.60;99.90
40255;DHT22;25973;52.368;4.940;2023-06-22T11:20:00;25.50;99.90
40255;DHT22;25973;52.368;4.940;2023-06-22T11:22:27;25.50;99.90
40255;DHT22;25973;52.368;4.940;2023-06-22T11:24:52;25.40;99.90
40255;DHT22;25973;52.368;4.940;2023-06-22T11:27:18;25.30;99.90
40255;DHT22;25973;52.368;4.940;2023-06-22T11:29:43;25.20;99.90
40255;DHT22;25973;52.368;4.940;2023-06-22T11:32:09;25.20;99.90
40255;DHT22;25973;52.368;4.940;2023-06-22T11:34:35;25.20;99.90
40255;DHT22;25973;52.368;4.940;2023-06-22T11:37:00;25.20;99.90
40255;DHT22;25973;52.368;4.940;2023-06-22T11:39:26;25.10;99.90
40255;DHT22;25973;52.368;4.940;2023-06-22T11:41:51;25.10;99.90
40255;DHT22;25973;52.368;4.940;2023-06-22T11:44:18;25.10;99.90
40255;DHT22;25973;52.368;4.940;2023-06-22T11:46:43;25.10;99.90
40255;DHT22;25973;52.368;4.940;2023-06-22T11:49:09;25.00;99.90
40255;DHT22;25973;52.368;4.940;2023-06-22T11:51:34;25.00;99.90
40255;DHT22;25973;52.368;4.940;2023-06-22T11:54:00;25.00;99.90
40255;DHT22;25973;52.368;4.940;2023-06-22T11:56:26;25.00;99.90
40255;DHT22;25973;52.368;4.940;2023-06-22T11:58:53;25.00;99.90
40255;DHT22;25973;52.368;4.940;2023-06-22T12:01:19;24.90;99.90
40255;DHT22;25973;52.368;4.940;2023-06-22T12:03:45;25.00;99.90
40255;DHT22;25973;52.368;4.940;2023-06-22T12:06:11;25.00;99.90
40255;DHT22;25973;52.368;4.940;2023-06-22T12:08:37;25.10;99.90
40255;DHT22;25973;52.368;4.940;2023-06-22T12:11:03;25.20;99.90
40255;DHT22;25973;52.368;4.940;2023-06-22T12:13:28;25.20;99.90
40255;DHT22;25973;52.368;4.940;2023-06-22T12:15:54;25.30;99.90
40255;DHT22;25973;52.368;4.940;2023-06-22T12:18:19;25.30;99.90
40255;DHT22;25973;52.368;4.940;2023-06-22T12:20:46;25.40;99.90
40255;DHT22;25973;52.368;4.940;2023-06-22T12:23:12;25.40;99.90
40255;DHT22;25973;52.368;4.940;2023-06-22T12:25:38;25.40;99.90
40255;DHT22;25973;52.368;4.940;2023-06-22T12:28:03;25.50;99.90
40255;DHT22;25973;52.368;4.940;2023-06-22T12:30:30;25.50;99.90
40255;DHT22;25973;52.368;4.940;2023-06-22T12:32:55;25.40;99.90
40255;DHT22;25973;52.368;4.940;2023-06-22T12:35:21;25.50;99.90
40255;DHT22;25973;52.368;4.940;2023-06-22T12:37:47;25.50;99.90
40255;DHT22;25973;52.368;4.940;2023-06-22T12:40:12;25.50;99.90
40255;DHT22;25973;52.368;4.940;2023-06-22T12:42:38;25.40;99.90
40255;DHT22;25973;52.368;4.940;2023-06-22T12:45:04;25.40;99.90
40255;DHT22;25973;52.368;4.940;2023-06-22T12:47:30;25.40;99.90
40255;DHT22;25973;52.368;4.940;2023-06-22T12:49:56;25.40;99.90
40255;DHT22;25973;52.368;4.940;2023-06-22T12:52:21;25.30;99.90
40255;DHT22;25973;52.368;4.940;2023-06-22T12:54:48;25.30;99.90
40255;DHT22;25973;52.368;4.940;2023-06-22T12:57:14;25.30;99.90
40255;DHT22;25973;52.368;4.940;2023-06-22T12:59:39;25.20;99.90
40255;DHT22;25973;52.368;4.940;2023-06-22T13:02:05;25.10;99.90
40255;DHT22;25973;52.368;4.940;2023-06-22T13:04:31;25.10;99.90
40255;DHT22;25973;52.368;4.940;2023-06-22T13:06:56;25.10;99.90
40255;DHT22;25973;52.368;4.940;2023-06-22T13:09:22;25.10;99.90
40255;DHT22;25973;52.368;4.940;2023-06-22T13:11:48;25.10;99.90
40255;DHT22;25973;52.368;4.940;2023-06-22T13:14:13;25.10;99.90
40255;DHT22;25973;52.368;4.940;2023-06-22T13:16:41;25.10;99.90
40255;DHT22;25973;52.368;4.940;2023-06-22T13:19:07;25.10;99.90
40255;DHT22;25973;52.368;4.940;2023-06-22T13:21:32;25.10;99.90
40255;DHT22;25973;52.368;4.940;2023-06-22T13:23:59;25.10;99.90
40255;DHT22;25973;52.368;4.940;2023-06-22T13:26:25;25.10;99.90
40255;DHT22;25973;52.368;4.940;2023-06-22T13:28:50;25.20;99.90
40255;DHT22;25973;52.368;4.940;2023-06-22T13:31:16;25.30;99.90
40255;DHT22;25973;52.368;4.940;2023-06-22T13:33:42;25.20;99.90
40255;DHT22;25973;52.368;4.940;2023-06-22T13:36:07;25.20;99.90
40255;DHT22;25973;52.368;4.940;2023-06-22T13:38:35;25.20;99.90
40255;DHT22;25973;52.368;4.940;2023-06-22T13:41:04;25.30;99.90
40255;DHT22;25973;52.368;4.940;2023-06-22T13:43:29;25.10;99.90
40255;DHT22;25973;52.368;4.940;2023-06-22T13:45:55;25.10;99.90
40255;DHT22;25973;52.368;4.940;2023-06-22T13:48:20;25.10;99.90
40255;DHT22;25973;52.368;4.940;2023-06-22T13:50:46;25.00;99.90
40255;DHT22;25973;52.368;4.940;2023-06-22T13:53:11;25.10;99.90
40255;DHT22;25973;52.368;4.940;2023-06-22T13:55:37;25.10;99.90
40255;DHT22;25973;52.368;4.940;2023-06-22T13:58:02;25.10;99.90
40255;DHT22;25973;52.368;4.940;2023-06-22T14:00:28;25.10;99.90
40255;DHT22;25973;52.368;4.940;2023-06-22T14:02:54;25.10;99.90
40255;DHT22;25973;52.368;4.940;2023-06-22T14:05:20;25.00;99.90
40255;DHT22;25973;52.368;4.940;2023-06-22T14:07:45;25.00;99.90
40255;DHT22;25973;52.368;4.940;2023-06-22T14:10:11;25.10;99.90
40255;DHT22;25973;52.368;4.940;2023-06-22T14:12:37;25.00;99.90
40255;DHT22;25973;52.368;4.940;2023-06-22T14:15:03;25.00;99.90
40255;DHT22;25973;52.368;4.940;2023-06-22T14:17:29;25.00;99.90
40255;DHT22;25973;52.368;4.940;2023-06-22T14:19:54;25.00;99.90
40255;DHT22;25973;52.368;4.940;2023-06-22T14:22:21;25.00;99.90
40255;DHT22;25973;52.368;4.940;2023-06-22T14:24:47;25.00;99.90
40255;DHT22;25973;52.368;4.940;2023-06-22T14:27:13;25.00;99.90
40255;DHT22;25973;52.368;4.940;2023-06-22T14:29:38;25.10;99.90
40255;DHT22;25973;52.368;4.940;2023-06-22T14:32:04;25.10;99.90
40255;DHT22;25973;52.368;4.940;2023-06-22T14:34:32;25.10;99.90
40255;DHT22;25973;52.368;4.940;2023-06-22T14:36:58;25.10;99.90
40255;DHT22;25973;52.368;4.940;2023-06-22T14:39:23;25.10;99.90
40255;DHT22;25973;52.368;4.940;2023-06-22T14:41:52;25.00;99.90
40255;DHT22;25973;52.368;4.940;2023-06-22T14:44:17;25.10;99.90
40255;DHT22;25973;52.368;4.940;2023-06-22T14:46:43;25.10;99.90
40255;DHT22;25973;52.368;4.940;2023-06-22T14:49:08;25.20;99.90
40255;DHT22;25973;52.368;4.940;2023-06-22T14:51:34;25.10;99.90
40255;DHT22;25973;52.368;4.940;2023-06-22T14:53:59;25.10;99.90
40255;DHT22;25973;52.368;4.940;2023-06-22T14:56:25;25.20;99.90
40255;DHT22;25973;52.368;4.940;2023-06-22T14:58:50;25.10;99.90
40255;DHT22;25973;52.368;4.940;2023-06-22T15:01:17;25.20;99.90
40255;DHT22;25973;52.368;4.940;2023-06-22T15:03:42;25.20;99.90
40255;DHT22;25973;52.368;4.940;2023-06-22T15:06:09;25.20;99.90
40255;DHT22;25973;52.368;4.940;2023-06-22T15:08:37;25.20;99.90
40255;DHT22;25973;52.368;4.940;2023-06-22T15:11:03;25.20;99.90
40255;DHT22;25973;52.368;4.940;2023-06-22T15:13:31;25.10;99.90
40255;DHT22;25973;52.368;4.940;2023-06-22T15:15:59;25.00;99.90
40255;DHT22;25973;52.368;4.940;2023-06-22T15:18:25;25.00;99.90
40255;DHT22;25973;52.368;4.940;2023-06-22T15:20:50;25.00;99.90
40255;DHT22;25973;52.368;4.940;2023-06-22T15:23:17;25.00;99.90
40255;DHT22;25973;52.368;4.940;2023-06-22T15:25:43;25.00;99.90
40255;DHT22;25973;52.368;4.940;2023-06-22T15:28:09;25.00;99.90
40255;DHT22;25973;52.368;4.940;2023-06-22T15:30:35;25.00;99.90